Time;durP1;ratioP1;P1;durP2;ratioP2;P2;SDS_P1;SDS_P2;PMS_P1;PMS_P2;Temp;Humidity;BMP_temperature;BMP_pressure;BME280_temperature;BME280_humidity;BME280_pressure;Samples;Min_cycle;Max_cycle;Signal;HPM_P1;HPM_P2
2023/03/09 00:00:47;;;;;;;26.45;15.60;;;;;;;;;;4931379;29;20476;-79
2023/03/09 00:03:15;;;;;;;25.23;15.40;;;;;;;;;;4927379;29;20556;-79
2023/03/09 00:05:45;;;;;;;24.55;14.93;;;;;;;;;;4934249;29;20461;-79
2023/03/09 00:08:11;;;;;;;23.67;14.77;;;;;;;;;;4936172;29;20462;-79
2023/03/09 00:10:41;;;;;;;23.55;15.35;;;;;;;;;;4937061;29;20411;-79
2023/03/09 00:13:07;;;;;;;22.80;14.30;;;;;;;;;;4937427;29;20415;-79
2023/03/09 00:15:33;;;;;;;21.23;14.07;;;;;;;;;;4936588;29;20428;-79
2023/03/09 00:17:59;;;;;;;22.23;14.10;;;;;;;;;;4936447;29;20439;-79
2023/03/09 00:20:25;;;;;;;21.50;13.02;;;;;;;;;;4936907;29;20787;-79
2023/03/09 00:22:52;;;;;;;19.98;12.80;;;;;;;;;;4920956;29;20430;-79
2023/03/09 00:25:19;;;;;;;21.75;13.57;;;;;;;;;;4937034;29;20474;-79
2023/03/09 00:27:50;;;;;;;22.58;14.35;;;2.00;99.90;;;;;;4936487;29;20489;-79
2023/03/09 00:30:18;;;;;;;21.35;13.85;;;;;;;;;;4935654;29;20893;-79
2023/03/09 00:32:44;;;;;;;21.67;13.77;;;;;;;;;;4936901;29;20419;-79
2023/03/09 00:35:11;;;;;;;23.85;15.45;;;;;;;;;;4936262;29;20466;-79
2023/03/09 00:37:37;;;;;;;24.53;15.33;;;;;;;;;;4922105;29;20462;-79
2023/03/09 00:40:06;;;;;;;24.95;15.60;;;;;;;;;;4909505;29;20435;-79
2023/03/09 00:42:32;;;;;;;25.10;15.27;;;;;;;;;;4936609;29;20749;-79
2023/03/09 00:45:00;;;;;;;24.25;14.98;;;;;;;;;;4920556;29;20407;-79
2023/03/09 00:47:27;;;;;;;22.43;14.20;;;;;;;;;;4920511;29;20442;-80
2023/03/09 00:49:53;;;;;;;23.48;14.38;;;;;;;;;;4951989;29;20455;-78
2023/03/09 00:52:19;;;;;;;23.38;14.63;;;;;;;;;;4936556;29;20475;-78
2023/03/09 00:54:45;;;;;;;23.42;14.25;;;;;;;;;;4936537;29;20456;-78
2023/03/09 00:57:11;;;;;;;23.10;14.43;;;;;;;;;;4911611;29;20507;-78
2023/03/09 00:59:37;;;;;;;23.67;14.65;;;;;;;;;;4914874;29;20449;-79
2023/03/09 01:02:03;;;;;;;24.35;15.38;;;;;;;;;;4917259;29;20421;-78
2023/03/09 01:04:29;;;;;;;24.73;15.65;;;;;;;;;;4916678;29;20915;-78
2023/03/09 01:06:55;;;;;;;24.60;15.50;;;;;;;;;;4905944;29;20938;-79
2023/03/09 01:09:21;;;;;;;27.90;15.93;;;;;;;;;;4936124;29;20419;-79
2023/03/09 01:11:47;;;;;;;25.27;15.57;;;;;;;;;;4918405;29;20432;-78
2023/03/09 01:14:13;;;;;;;23.77;15.45;;;;;;;;;;4937085;29;20764;-79
2023/03/09 01:16:39;;;;;;;23.73;15.27;;;;;;;;;;4935960;29;20419;-78
2023/03/09 01:19:06;;;;;;;24.38;15.40;;;;;;;;;;4917224;29;20414;-78
2023/03/09 01:21:32;;;;;;;21.80;13.93;;;;;;;;;;4927339;29;20431;-79
2023/03/09 01:23:58;;;;;;;23.85;14.40;;;;;;;;;;4935789;29;20451;-78
2023/03/09 01:26:24;;;;;;;22.13;14.48;;;;;;;;;;4935556;29;21015;-78
2023/03/09 01:28:50;;;;;;;24.02;15.07;;;;;;;;;;4935894;29;20844;-79
2023/03/09 01:31:16;;;;;;;22.00;14.15;;;;;;;;;;4935463;29;20492;-78
2023/03/09 01:33:43;;;;;;;23.75;14.52;;;;;;;;;;4935779;29;20775;-78
2023/03/09 01:36:13;;;;;;;22.35;14.32;;;;;;;;;;4919714;29;20456;-79
2023/03/09 01:38:39;;;;;;;22.67;14.27;;;;;;;;;;4935814;29;20422;-78
2023/03/09 01:41:05;;;;;;;23.23;14.82;;;;;;;;;;4919581;29;20471;-78
2023/03/09 01:43:39;;;;;;;22.63;14.55;;;;;;;;;;4911521;29;21064;-78
2023/03/09 01:46:20;;;;;;;22.60;14.60;;;;;;;;;;4931255;29;20923;-78
2023/03/09 01:48:48;;;;;;;23.15;14.20;;;;;;;;;;4935446;29;20423;-78
2023/03/09 01:51:14;;;;;;;23.10;14.32;;;;;;;;;;4935063;29;20517;-78
2023/03/09 01:53:41;;;;;;;23.30;14.30;;;;;;;;;;4935356;29;20427;-78
2023/03/09 01:56:07;;;;;;;22.45;13.82;;;;;;;;;;4919417;29;20459;-78
2023/03/09 01:58:34;;;;;;;21.73;13.30;;;;;;;;;;4913879;29;20774;-78
2023/03/09 02:01:00;;;;;;;21.63;13.77;;;;;;;;;;4915389;29;20419;-78
2023/03/09 02:03:29;;;;;;;20.67;12.48;;;;;;;;;;4930458;29;20435;-79
2023/03/09 02:06:24;;;;;;;21.67;13.10;;;1.30;99.90;;;;;;4934747;29;20983;-78
2023/03/09 02:08:58;;;;;;;20.92;13.73;;;;;;;;;;4926990;29;20463;-79
2023/03/09 02:11:24;;;;;;;22.17;13.43;;;;;;;;;;4935567;29;20417;-79
2023/03/09 02:13:53;;;;;;;21.07;12.57;;;;;;;;;;4915213;29;20799;-79
2023/03/09 02:16:19;;;;;;;23.35;12.77;;;;;;;;;;4927248;29;20435;-79
2023/03/09 02:18:45;;;;;;;21.23;13.50;;;;;;;;;;4919104;29;20437;-78
2023/03/09 02:21:26;;;;;;;19.33;12.32;;;;;;;;;;4933738;29;20498;-78
2023/03/09 02:24:19;;;;;;;18.40;12.33;;;;;;;;;;4935746;29;20419;-78
2023/03/09 02:26:47;;;;;;;20.10;13.05;;;;;;;;;;4934495;29;20514;-79
2023/03/09 02:29:13;;;;;;;21.05;13.00;;;;;;;;;;4916039;29;20444;-78
2023/03/09 02:31:40;;;;;;;23.58;13.73;;;;;;;;;;4899943;29;20416;-78
2023/03/09 02:34:07;;;;;;;20.15;12.98;;;;;;;;;;4934750;29;20419;-79
2023/03/09 02:36:33;;;;;;;21.75;13.57;;;;;;;;;;4919167;29;20423;-78
2023/03/09 02:39:05;;;;;;;21.45;13.13;;;;;;;;;;4935824;29;20789;-79
2023/03/09 02:41:31;;;;;;;20.63;13.20;;;;;;;;;;4934767;29;20824;-79
2023/03/09 02:43:58;;;;;;;22.63;13.43;;;;;;;;;;4934434;29;20432;-78
2023/03/09 02:46:24;;;;;;;21.52;13.13;;;;;;;;;;4934393;29;20439;-79
2023/03/09 02:48:50;;;;;;;20.45;12.63;;;;;;;;;;4918600;29;20431;-79
2023/03/09 02:51:16;;;;;;;21.53;13.90;;;;;;;;;;4934487;29;20580;-79
2023/03/09 02:53:42;;;;;;;21.23;13.15;;;;;;;;;;4902821;29;20415;-79
2023/03/09 02:56:08;;;;;;;23.70;13.07;;;;;;;;;;4934603;29;20498;-79
2023/03/09 02:58:35;;;;;;;21.27;13.23;;;;;;;;;;4915336;29;20421;-79
2023/03/09 03:01:01;;;;;;;20.83;13.07;;;;;;;;;;4931345;29;20434;-79
2023/03/09 03:03:27;;;;;;;20.65;12.75;;;;;;;;;;4930940;29;20426;-79
2023/03/09 03:05:54;;;;;;;21.35;13.27;;;;;;;;;;4918440;29;20419;-79
2023/03/09 03:08:20;;;;;;;20.17;12.50;;;;;;;;;;4934496;29;20841;-79
2023/03/09 03:10:46;;;;;;;21.17;13.13;;;;;;;;;;4935666;29;20483;-79
2023/03/09 03:13:12;;;;;;;21.35;13.15;;;;;;;;;;4935566;29;20502;-79
2023/03/09 03:15:38;;;;;;;20.85;13.02;;;;;;;;;;4935395;29;20416;-79
2023/03/09 03:18:04;;;;;;;20.33;13.30;;;;;;;;;;4919489;29;20431;-79
2023/03/09 03:20:30;;;;;;;21.92;13.50;;;;;;;;;;4919326;29;20415;-79
2023/03/09 03:22:56;;;;;;;19.55;12.48;;;;;;;;;;4901215;29;20472;-79
2023/03/09 03:25:22;;;;;;;20.80;12.87;;;;;;;;;;4917707;29;20480;-79
2023/03/09 03:27:48;;;;;;;20.52;13.73;;;;;;;;;;4899128;29;20934;-79
2023/03/09 03:30:15;;;;;;;22.25;13.80;;;;;;;;;;4915167;29;20468;-79
2023/03/09 03:32:41;;;;;;;21.95;13.25;;;;;;;;;;4915057;29;20524;-79
2023/03/09 03:35:07;;;;;;;21.08;13.20;;;;;;;;;;4914173;29;20417;-79
2023/03/09 03:37:33;;;;;;;21.95;13.63;;;;;;;;;;4914242;29;20916;-79
2023/03/09 03:39:59;;;;;;;22.65;13.77;;;;;;;;;;4933826;29;20415;-79
2023/03/09 03:42:25;;;;;;;22.70;13.52;;;;;;;;;;4933716;29;20502;-79
2023/03/09 03:44:51;;;;;;;20.93;13.40;;;;;;;;;;4902589;29;20760;-79
2023/03/09 03:47:17;;;;;;;23.65;14.50;;;;;;;;;;4934093;29;20942;-79
2023/03/09 03:49:43;;;;;;;22.65;14.23;;;;;;;;;;4933714;29;20928;-79
2023/03/09 03:52:11;;;;;;;24.10;14.25;;;;;;;;;;4934089;29;20419;-79
2023/03/09 03:54:37;;;;;;;22.10;14.07;;;;;;;;;;4933858;29;20435;-79
2023/03/09 03:57:03;;;;;;;23.83;14.07;;;;;;;;;;4917996;29;20412;-79
2023/03/09 03:59:29;;;;;;;21.87;14.20;;;;;;;;;;4933806;29;20466;-79
2023/03/09 04:01:55;;;;;;;22.35;14.02;;;;;;;;;;4917501;29;20938;-79
2023/03/09 04:04:21;;;;;;;24.05;14.55;;;;;;;;;;4950275;29;20924;-79
2023/03/09 04:06:47;;;;;;;23.38;14.45;;;;;;;;;;4943774;29;20523;-79
2023/03/09 04:09:13;;;;;;;22.20;13.25;;;;;;;;;;4917660;29;20447;-79
2023/03/09 04:11:40;;;;;;;24.60;15.43;;;;;;;;;;4933611;29;20408;-79
2023/03/09 04:14:06;;;;;;;23.67;14.50;;;;;;;;;;4917592;29;20443;-79
2023/03/09 04:16:32;;;;;;;22.30;13.97;;;;;;;;;;4933511;29;20422;-79
2023/03/09 04:18:58;;;;;;;24.40;14.45;;;;;;;;;;4931787;29;20482;-79
2023/03/09 04:21:24;;;;;;;23.05;15.00;;;;;;;;;;4929018;29;20450;-79
2023/03/09 04:23:50;;;;;;;23.80;14.32;;;;;;;;;;4933532;29;20462;-79
2023/03/09 04:26:16;;;;;;;26.38;14.50;;;;;;;;;;4933216;29;20435;-79
2023/03/09 04:28:42;;;;;;;23.75;14.57;;;;;;;;;;4933306;29;20418;-79
2023/03/09 04:31:08;;;;;;;23.60;14.80;;;;;;;;;;4917580;29;20499;-79
2023/03/09 04:33:34;;;;;;;26.10;15.40;;;;;;;;;;4917546;29;20408;-79
2023/03/09 04:36:00;;;;;;;25.58;15.68;;;;;;;;;;4932995;29;20954;-78
2023/03/09 04:38:26;;;;;;;24.08;14.90;;;;;;;;;;4933584;29;20412;-79
2023/03/09 04:40:52;;;;;;;25.00;15.15;;;;;;;;;;4933090;29;20474;-79
2023/03/09 04:43:18;;;;;;;25.23;15.60;;;;;;;;;;4933213;29;20408;-78
2023/03/09 04:45:44;;;;;;;28.63;16.55;;;;;;;;;;4934769;29;20427;-79
2023/03/09 04:48:11;;;;;;;25.13;15.60;;;;;;;;;;4903884;29;20429;-78
2023/03/09 04:50:37;;;;;;;26.27;15.73;;;;;;;;;;4936434;29;20407;-78
2023/03/09 04:53:03;;;;;;;26.38;15.98;;;;;;;;;;4919797;29;20432;-78
2023/03/09 04:55:29;;;;;;;27.17;16.27;;;;;;;;;;4919214;29;20474;-80
2023/03/09 04:57:55;;;;;;;27.42;15.88;;;;;;;;;;4936498;29;20764;-79
2023/03/09 05:00:23;;;;;;;30.10;17.13;;;;;;;;;;4936349;29;20420;-79
2023/03/09 05:02:49;;;;;;;27.83;16.63;;;;;;;;;;4929755;29;20994;-79
2023/03/09 05:05:16;;;;;;;28.38;16.52;;;;;;;;;;4935957;29;20908;-79
2023/03/09 05:07:42;;;;;;;28.88;17.20;;;;;;;;;;4934167;29;20443;-79
2023/03/09 05:10:09;;;;;;;30.33;17.38;;;;;;;;;;4916984;29;20444;-79
2023/03/09 05:12:35;;;;;;;28.90;16.90;;;;;;;;;;4924838;29;20460;-79
2023/03/09 05:15:01;;;;;;;28.85;17.10;;;;;;;;;;4935771;29;20432;-79
2023/03/09 05:17:28;;;;;;;27.65;17.20;;;;;;;;;;4926425;29;20437;-78
2023/03/09 05:19:55;;;;;;;30.08;17.23;;;;;;;;;;4933567;29;20439;-76
2023/03/09 05:22:21;;;;;;;32.03;17.85;;;;;;;;;;4933921;29;20780;-76
2023/03/09 05:24:47;;;;;;;31.88;18.10;;;;;;;;;;4919298;29;20415;-76
2023/03/09 05:27:13;;;;;;;30.73;17.57;;;;;;;;;;4930785;29;20446;-75
2023/03/09 05:29:40;;;;;;;31.75;18.17;;;;;;;;;;4935359;29;20474;-76
2023/03/09 05:32:06;;;;;;;32.20;18.40;;;;;;;;;;4926980;29;20441;-76
2023/03/09 05:34:32;;;;;;;32.50;19.33;;;;;;;;;;4950129;28;20460;-76
2023/03/09 05:36:58;;;;;;;31.63;18.75;;;;;;;;;;4926555;29;20451;-76
2023/03/09 05:39:25;;;;;;;33.78;18.95;;;;;;;;;;4935124;29;20455;-76
2023/03/09 05:41:51;;;;;;;32.47;18.20;;;;;;;;;;4914616;29;20504;-76
2023/03/09 05:44:17;;;;;;;32.45;18.27;;;;;;;;;;4916270;29;20435;-76
2023/03/09 05:46:43;;;;;;;31.65;18.27;;;;;;;;;;4933770;29;20532;-76
2023/03/09 05:49:10;;;;;;;31.35;18.65;;;;;;;;;;4931708;29;20457;-76
2023/03/09 05:51:36;;;;;;;31.08;19.02;;;;;;;;;;4933448;29;20920;-76
2023/03/09 05:54:02;;;;;;;29.48;17.83;;;;;;;;;;4932354;29;20493;-79
2023/03/09 05:56:28;;;;;;;32.00;18.50;;;;;;;;;;4911638;29;20496;-79
2023/03/09 05:58:56;;;;;;;34.03;18.48;;;;;;;;;;4912599;29;20780;-79
2023/03/09 06:01:23;;;;;;;33.10;19.13;;;;;;;;;;4936358;29;20411;-79
2023/03/09 06:03:50;;;;;;;31.65;18.73;;;;;;;;;;4930588;29;20435;-80
2023/03/09 06:06:16;;;;;;;33.08;17.58;;;;;;;;;;4936069;29;20438;-79
2023/03/09 06:08:42;;;;;;;32.00;18.75;;;;;;;;;;4935649;29;20431;-80
2023/03/09 06:11:09;;;;;;;30.85;17.85;;;;;;;;;;4920413;29;20412;-80
2023/03/09 06:13:35;;;;;;;28.83;17.25;;;;;;;;;;4929896;29;20911;-79
2023/03/09 06:16:05;;;;;;;30.88;17.65;;;;;;;;;;4925085;29;20545;-80
2023/03/09 06:18:31;;;;;;;32.13;17.23;;;;;;;;;;4933158;29;20442;-80
2023/03/09 06:21:01;;;;;;;30.80;17.65;;;;;;;;;;4935120;29;20431;-82
2023/03/09 06:23:28;;;;;;;30.45;18.40;;;;;;;;;;4935230;29;20594;-80
2023/03/09 06:25:54;;;;;;;30.05;17.92;;;;;;;;;;4917503;29;20424;-80
2023/03/09 06:28:20;;;;;;;31.57;19.03;;;;;;;;;;4917495;29;20442;-81
2023/03/09 06:30:46;;;;;;;30.10;18.33;;;;;;;;;;4916598;29;20925;-80
2023/03/09 06:33:12;;;;;;;32.10;18.48;;;;;;;;;;4930286;29;20431;-80
2023/03/09 06:35:40;;;;;;;30.30;18.08;;;;;;;;;;4927862;29;20431;-80
2023/03/09 06:38:06;;;;;;;30.73;17.93;;;;;;;;;;4918074;29;20514;-79
2023/03/09 06:40:32;;;;;;;33.15;19.10;;;;;;;;;;4915236;29;20432;-80
2023/03/09 06:42:58;;;;;;;32.55;18.90;;;;;;;;;;4912493;29;20443;-79
2023/03/09 06:45:24;;;;;;;30.77;17.88;;;;;;;;;;4929185;29;20431;-78
2023/03/09 06:47:54;;;;;;;29.88;18.08;;;;;;;;;;4917843;29;20486;-78
2023/03/09 06:50:20;;;;;;;32.05;18.52;;;;;;;;;;4920630;29;20427;-78
2023/03/09 06:52:46;;;;;;;32.10;19.45;;;;;;;;;;4918340;29;20437;-78
2023/03/09 06:55:12;;;;;;;32.30;19.40;;;;;;;;;;4933194;29;20422;-78
2023/03/09 06:57:38;;;;;;;31.05;18.70;;;;;;;;;;4922616;29;20462;-78
2023/03/09 07:00:06;;;;;;;32.72;19.75;;;;;;;;;;4932918;29;20420;-80
2023/03/09 07:02:32;;;;;;;32.25;18.30;;;;;;;;;;4904486;29;20555;-78
2023/03/09 07:04:58;;;;;;;29.42;18.25;;;;;;;;;;4917006;29;20442;-78
2023/03/09 07:07:24;;;;;;;29.13;18.00;;;;;;;;;;4916845;29;20829;-78
2023/03/09 07:09:50;;;;;;;28.83;17.47;;;;;;;;;;4913736;29;20462;-79
2023/03/09 07:12:16;;;;;;;31.52;18.85;;;;;;;;;;4917870;29;20456;-79
2023/03/09 07:14:42;;;;;;;30.40;18.05;;;;;;;;;;4932691;29;20839;-78
2023/03/09 07:17:12;;;;;;;27.65;17.55;;;;;;;;;;4930814;29;20422;-79
2023/03/09 07:19:38;;;;;;;29.42;17.98;;;;;;;;;;4914166;29;20939;-78
2023/03/09 07:22:04;;;;;;;30.52;18.55;;;;;;;;;;4912516;29;20527;-78
2023/03/09 07:24:31;;;;;;;27.77;17.87;;;;;;;;;;4915050;29;20526;-78
2023/03/09 07:26:57;;;;;;;29.80;18.13;;;;;;;;;;4890824;29;20468;-78
2023/03/09 07:29:23;;;;;;;29.85;17.70;;;;;;;;;;4891366;29;20460;-78
2023/03/09 07:31:49;;;;;;;27.88;17.58;;;;;;;;;;4911593;29;20435;-78
2023/03/09 07:34:15;;;;;;;27.70;17.47;;;;;;;;;;4912058;29;20435;-78
2023/03/09 07:36:41;;;;;;;27.95;18.05;;;;;;;;;;4914594;29;20918;-78
2023/03/09 07:39:07;;;;;;;27.90;17.98;;;;;;;;;;4912614;29;20971;-78
2023/03/09 07:41:33;;;;;;;28.80;17.92;;;;;;;;;;4922516;29;20569;-78
2023/03/09 07:43:59;;;;;;;26.33;17.13;;;;;;;;;;4916158;29;20769;-82
2023/03/09 07:46:25;;;;;;;26.90;17.00;;;;;;;;;;4917229;29;20463;-79
2023/03/09 07:48:52;;;;;;;26.48;16.85;;;;;;;;;;4933150;29;20502;-79
2023/03/09 07:51:18;;;;;;;26.60;17.35;;;;;;;;;;4930037;29;20424;-79
2023/03/09 07:53:44;;;;;;;26.60;17.15;;;;;;;;;;4913951;29;20888;-79
2023/03/09 07:56:11;;;;;;;27.15;16.70;;;;;;;;;;4926232;29;20472;-78
2023/03/09 07:58:38;;;;;;;27.63;17.35;;;;;;;;;;4929666;29;20446;-78
2023/03/09 08:01:06;;;;;;;25.42;16.40;;;;;;;;;;4929571;29;20446;-78
2023/03/09 08:03:32;;;;;;;25.30;16.48;;;;;;;;;;4915409;29;20431;-79
2023/03/09 08:06:01;;;;;;;25.67;16.52;;;;;;;;;;4932024;29;20451;-78
2023/03/09 08:08:27;;;;;;;24.25;16.23;;;;;;;;;;4925708;29;20588;-78
2023/03/09 08:10:54;;;;;;;24.02;15.52;;;;;;;;;;4922797;29;20430;-79
2023/03/09 08:13:21;;;;;;;23.20;15.15;;;;;;;;;;4916505;29;20427;-80
2023/03/09 08:15:47;;;;;;;23.02;15.52;;;;;;;;;;4930514;29;20563;-79
2023/03/09 08:18:14;;;;;;;23.30;14.95;;;;;;;;;;4925172;29;20498;-79
2023/03/09 08:20:40;;;;;;;22.88;15.23;;;;;;;;;;4930762;29;20431;-80
2023/03/09 08:23:06;;;;;;;20.60;13.98;;;;;;;;;;4919797;29;20435;-80
2023/03/09 08:25:33;;;;;;;22.10;14.68;;;;;;;;;;4928304;29;20423;-79
2023/03/09 08:27:59;;;;;;;21.38;14.45;;;;;;;;;;4931155;29;20470;-80
2023/03/09 08:30:25;;;;;;;20.57;14.00;;;;;;;;;;4927192;29;20447;-79
2023/03/09 08:32:53;;;;;;;19.35;13.75;;;;;;;;;;4931900;29;20433;-78
2023/03/09 08:35:19;;;;;;;20.27;13.73;;;;;;;;;;4932946;29;20427;-78
2023/03/09 08:37:46;;;;;;;19.38;12.98;;;;;;;;;;4931335;29;20429;-78
2023/03/09 08:40:13;;;;;;;20.88;13.52;;;;;;;;;;4935133;29;20462;-78
2023/03/09 08:42:39;;;;;;;19.75;14.23;;;;;;;;;;4912834;29;20488;-78
2023/03/09 08:45:06;;;;;;;19.70;13.97;;;;;;;;;;4933527;29;20439;-78
2023/03/09 08:47:33;;;;;;;19.63;13.40;;;;;;;;;;4931284;29;20451;-78
2023/03/09 08:49:59;;;;;;;19.67;13.38;;;;;;;;;;4935319;29;20424;-79
2023/03/09 08:52:25;;;;;;;20.58;13.98;;;;;;;;;;4931810;29;20447;-79
2023/03/09 08:54:52;;;;;;;19.08;13.10;;;;;;;;;;4915121;29;20429;-81
2023/03/09 08:57:18;;;;;;;18.27;13.25;;;;;;;;;;4927314;29;20474;-78
2023/03/09 08:59:44;;;;;;;18.77;12.55;;;;;;;;;;4927072;29;20431;-79
2023/03/09 09:02:16;;;;;;;19.73;13.40;;;;;;;;;;4918810;29;20432;-79
2023/03/09 09:04:43;;;;;;;18.67;12.50;;;;;;;;;;4913869;29;20920;-78
2023/03/09 09:07:09;;;;;;;17.90;12.50;;;;;;;;;;4932695;29;20446;-78
2023/03/09 09:09:35;;;;;;;18.70;12.48;;;;;;;;;;4930404;29;20439;-82
2023/03/09 09:12:01;;;;;;;18.05;12.55;;;;;;;;;;4932059;29;20753;-82
2023/03/09 09:14:27;;;;;;;16.13;11.63;;;;;;;;;;4902245;29;20463;-80
2023/03/09 09:16:53;;;;;;;17.48;12.55;;;;;;;;;;4917581;29;20986;-81
2023/03/09 09:19:19;;;;;;;17.38;12.02;;;;;;;;;;4931913;29;20435;-81
2023/03/09 09:21:45;;;;;;;15.13;10.40;;;;;;;;;;4916163;29;20435;-79
2023/03/09 09:24:11;;;;;;;14.38;10.15;;;;;;;;;;4930872;29;20434;-79
2023/03/09 09:26:37;;;;;;;14.93;10.23;;;;;;;;;;4929454;29;20471;-80
2023/03/09 09:29:05;;;;;;;12.45;8.93;;;;;;;;;;4916219;29;20955;-79
2023/03/09 09:31:31;;;;;;;13.43;8.77;;;;;;;;;;4915918;29;20511;-79
2023/03/09 09:33:57;;;;;;;14.63;9.93;;;;;;;;;;4935048;29;20919;-80
2023/03/09 09:36:24;;;;;;;14.55;10.15;;;;;;;;;;4929914;29;20423;-79
2023/03/09 09:38:52;;;;;;;13.80;9.90;;;;;;;;;;4897334;29;20435;-79
2023/03/09 09:41:35;;;;;;;13.48;9.68;;;;;;;;;;4917933;29;20420;-79
2023/03/09 09:44:03;;;;;;;13.98;9.05;;;;;;;;;;4928443;29;20432;-79
2023/03/09 09:46:31;;;;;;;14.52;9.82;;;;;;;;;;4930200;29;20442;-78
2023/03/09 09:48:58;;;;;;;12.32;9.07;;;;;;;;;;4931509;29;20946;-79
2023/03/09 09:51:30;;;;;;;13.20;9.70;;;;;;;;;;4932000;29;20427;-79
2023/03/09 09:54:03;;;;;;;13.50;8.75;;;;;;;;;;4946469;29;20962;-79
2023/03/09 09:56:47;;;;;;;12.02;8.50;;;;;;;;;;4925790;29;20439;-79
2023/03/09 09:59:16;;;;;;;12.65;8.57;;;;;;;;;;4932396;29;20447;-78
2023/03/09 10:01:46;;;;;;;13.00;9.20;;;;;;;;;;4915875;29;20954;-79
2023/03/09 10:04:18;;;;;;;12.75;8.77;;;;;;;;;;4928087;29;20932;-77
2023/03/09 10:06:44;;;;;;;12.05;8.80;;;;;;;;;;4915990;29;20435;-78
2023/03/09 10:09:14;;;;;;;13.93;8.40;;;;;;;;;;4929475;29;20840;-77
2023/03/09 10:11:45;;;;;;;15.63;8.80;;;;;;;;;;4928686;29;20429;-77
2023/03/09 10:14:14;;;;;;;13.50;8.75;;;;;;;;;;4929463;29;20455;-77
2023/03/09 10:16:43;;;;;;;11.57;8.23;;;;;;;;;;4932266;29;20556;-78
2023/03/09 10:19:15;;;;;;;11.27;8.50;;;;;;;;;;4929064;29;20451;-77
2023/03/09 10:21:46;;;;;;;11.80;8.60;;;;;;;;;;4932076;29;20447;-76
2023/03/09 10:24:30;;;;;;;12.17;8.77;;;;;;;;;;4907779;29;20814;-77
2023/03/09 10:27:08;;;;;;;12.98;8.93;;;;;;;;;;4928933;29;20478;-78
2023/03/09 10:29:37;;;;;;;12.88;9.13;;;;;;;;;;4927010;29;20985;-79
2023/03/09 10:32:08;;;;;;;12.00;8.30;;;;;;;;;;4906041;29;20437;-80
2023/03/09 10:34:39;;;;;;;12.18;8.32;;;;;;;;;;4912227;29;20492;-79
2023/03/09 10:37:13;;;;;;;12.52;8.20;;;;;;;;;;4924671;29;20455;-79
2023/03/09 10:39:42;;;;;;;11.25;7.53;;;;;;;;;;4924278;29;20463;-77
2023/03/09 10:42:17;;;;;;;10.65;7.30;;;;;;;;;;4927309;29;20948;-78
2023/03/09 10:44:47;;;;;;;12.53;8.23;;;;;;;;;;4930532;29;20519;-77
2023/03/09 10:47:13;;;;;;;10.55;7.55;;;;;;;;;;4925713;29;20515;-78
2023/03/09 10:49:39;;;;;;;11.07;8.40;;;;;;;;;;4929840;29;20438;-78
2023/03/09 10:52:07;;;;;;;12.68;8.77;;;;;;;;;;4912861;29;20457;-78
2023/03/09 10:54:40;;;;;;;12.00;8.10;;;;;;;;;;4905624;29;20429;-78
2023/03/09 10:57:25;;;;;;;11.07;7.43;;;;;;;;;;4910645;29;20435;-78
2023/03/09 11:00:14;;;;;;;11.10;7.75;;;;;;;;;;4928839;29;20499;-78
2023/03/09 11:02:51;;;;;;;11.98;8.48;;;;;;;;;;4927897;29;20442;-77
2023/03/09 11:05:21;;;;;;;10.65;7.57;;;;;;;;;;4911328;29;20919;-78
2023/03/09 11:07:53;;;;;;;10.90;7.45;;;;;;;;;;4931760;29;20435;-77
2023/03/09 11:10:27;;;;;;;10.23;7.28;;;;;;;;;;4927230;29;20439;-78
2023/03/09 11:12:54;;;;;;;10.20;7.47;;;;;;;;;;4928631;29;20534;-78
2023/03/09 11:15:23;;;;;;;11.18;7.97;;;;;;;;;;4928087;29;20477;-78
2023/03/09 11:17:49;;;;;;;12.43;9.03;;;;;;;;;;4912561;29;20451;-78
2023/03/09 11:20:18;;;;;;;12.70;9.50;;;;;;;;;;4912805;29;20432;-78
2023/03/09 11:22:50;;;;;;;13.07;9.48;;;;;;;;;;4922309;29;20547;-78
2023/03/09 11:25:35;;;;;;;12.32;8.70;;;;;;;;;;4928417;29;20443;-77
2023/03/09 11:28:04;;;;;;;12.35;8.95;;;;;;;;;;4930232;29;20471;-77
2023/03/09 11:30:31;;;;;;;12.68;8.45;;;;;;;;;;4925478;29;20455;-79
2023/03/09 11:32:57;;;;;;;11.05;8.57;;;;;;;;;;4921457;29;20855;-80
2023/03/09 11:35:23;;;;;;;10.90;8.10;;;;;;;;;;4911145;29;20466;-79
2023/03/09 11:37:52;;;;;;;13.00;8.55;;;;;;;;;;4913132;29;20454;-79
2023/03/09 11:40:22;;;;;;;12.05;8.90;;;;;;;;;;4930651;29;20442;-79
2023/03/09 11:42:50;;;;;;;12.30;8.43;;;;;;;;;;4930619;29;20441;-79
2023/03/09 11:45:30;;;;;;;12.00;8.15;;;;;;;;;;4927074;29;20530;-79
2023/03/09 11:48:05;;;;;;;12.20;8.50;;;;;;;;;;4929487;29;20487;-79
2023/03/09 11:50:44;;;;;;;12.13;8.07;;;;;;;;;;4914932;29;20435;-79
2023/03/09 11:53:13;;;;;;;10.55;8.10;;;;;;;;;;4928753;29;20489;-78
2023/03/09 11:55:42;;;;;;;12.38;8.55;;;;;;;;;;4913981;29;20919;-79
2023/03/09 11:58:15;;;;;;;11.02;7.63;;;;;;;;;;4927638;29;20796;-78
2023/03/09 12:00:44;;;;;;;10.73;7.60;;;;;;;;;;4931421;29;20492;-79
2023/03/09 12:03:11;;;;;;;12.15;7.95;;;;;;;;;;4934919;29;20434;-78
2023/03/09 12:05:40;;;;;;;11.57;8.45;;;;;;;;;;4935448;29;20435;-78
2023/03/09 12:08:18;;;;;;;11.90;7.55;;;;;;;;;;4916899;29;20518;-78
2023/03/09 12:10:44;;;;;;;11.85;8.18;;;;;;;;;;4928626;29;20429;-77
2023/03/09 12:13:13;;;;;;;10.40;7.70;;;;;;;;;;4928019;29;20435;-77
2023/03/09 12:16:07;;;;;;;11.60;7.78;;;4.90;99.90;;;;;;4915705;29;20460;-77
2023/03/09 12:18:36;;;;;;;11.55;7.93;;;;;;;;;;4930045;29;20804;-76
2023/03/09 12:21:04;;;;;;;10.48;7.90;;;;;;;;;;4933367;29;20442;-76
2023/03/09 12:23:37;;;;;;;10.90;7.90;;;;;;;;;;4932792;29;20445;-76
2023/03/09 12:26:12;;;;;;;10.75;8.13;;;;;;;;;;4921637;29;20435;-76
2023/03/09 12:28:38;;;;;;;11.82;8.73;;;;;;;;;;4930767;29;20514;-76
2023/03/09 12:31:05;;;;;;;11.23;8.27;;;;;;;;;;4928749;29;20434;-76
2023/03/09 12:33:46;;;;;;;12.80;7.85;;;;;;;;;;4918623;29;20835;-76
2023/03/09 12:36:23;;;;;;;10.98;8.07;;;;;;;;;;4931272;29;20442;-76
2023/03/09 12:39:31;;;;;;;10.77;8.63;;;4.30;99.90;;;;;;4926785;29;20434;-75
2023/03/09 12:42:23;;;;;;;12.15;8.98;;;;;;;;;;4928575;29;20431;-76
2023/03/09 12:44:50;;;;;;;12.18;9.27;;;;;;;;;;4915189;29;22200;-76
2023/03/09 12:47:24;;;;;;;11.43;8.80;;;;;;;;;;4914304;29;20519;-76
2023/03/09 12:49:54;;;;;;;11.98;8.88;;;;;;;;;;4929097;29;20737;-76
2023/03/09 12:52:33;;;;;;;12.13;9.25;;;;;;;;;;4929444;29;20979;-76
2023/03/09 12:55:19;;;;;;;13.90;9.07;;;;;;;;;;4932052;29;20478;-76
2023/03/09 12:57:46;;;;;;;11.88;9.05;;;;;;;;;;4930882;29;21254;-76
2023/03/09 13:00:20;;;;;;;12.13;9.20;;;;;;;;;;4926372;29;20427;-76
2023/03/09 13:02:57;;;;;;;11.25;8.70;;;;;;;;;;4916705;29;20456;-76
2023/03/09 13:05:24;;;;;;;12.10;9.07;;;;;;;;;;4931062;29;20628;-76
2023/03/09 13:08:01;;;;;;;12.07;8.30;;;;;;;;;;4945172;29;20441;-76
2023/03/09 13:10:30;;;;;;;11.98;8.23;;;;;;;;;;4929287;29;21009;-76
2023/03/09 13:13:15;;;;;;;11.25;8.00;;;;;;;;;;4928571;29;20478;-76
2023/03/09 13:15:42;;;;;;;11.55;8.50;;;;;;;;;;4931364;29;20483;-76
2023/03/09 13:18:13;;;;;;;11.38;8.68;;;;;;;;;;4930290;29;21004;-76
2023/03/09 13:20:43;;;;;;;11.38;8.20;;;;;;;;;;4931386;29;20932;-76
2023/03/09 13:23:10;;;;;;;12.10;8.95;;;;;;;;;;4928095;29;20435;-76
2023/03/09 13:25:42;;;;;;;11.95;8.90;;;;;;;;;;4916647;29;20529;-76
2023/03/09 13:28:13;;;;;;;12.68;8.75;;;;;;;;;;4929161;29;20446;-76
2023/03/09 13:30:42;;;;;;;14.32;9.15;;;;;;;;;;4930343;29;20435;-76
2023/03/09 13:33:14;;;;;;;14.55;9.70;;;;;;;;;;4916326;29;20684;-76
2023/03/09 13:35:42;;;;;;;13.93;9.15;;;;;;;;;;4931395;29;20433;-76
2023/03/09 13:38:18;;;;;;;12.93;9.40;;;;;;;;;;4931180;29;20431;-76
2023/03/09 13:40:49;;;;;;;13.35;9.77;;;;;;;;;;4928574;29;20435;-76
2023/03/09 13:43:20;;;;;;;13.75;9.75;;;;;;;;;;4913444;29;20529;-76
2023/03/09 13:45:58;;;;;;;13.90;9.85;;;;;;;;;;4932640;29;20891;-76
2023/03/09 13:48:24;;;;;;;13.55;10.15;;;;;;;;;;4930474;29;20443;-75
2023/03/09 13:50:50;;;;;;;12.43;9.98;;;;;;;;;;4928631;29;20428;-77
2023/03/09 13:53:27;;;;;;;13.20;10.00;;;;;;;;;;4908211;29;20845;-76
2023/03/09 13:56:03;;;;;;;15.52;10.80;;;;;;;;;;4922848;29;20428;-77
2023/03/09 13:58:32;;;;;;;14.93;11.00;;;;;;;;;;4916621;29;20510;-77
2023/03/09 14:01:00;;;;;;;14.13;10.70;;;;;;;;;;4931115;29;20438;-77
2023/03/09 14:03:28;;;;;;;16.67;11.90;;;;;;;;;;4917516;29;20533;-77
2023/03/09 14:06:13;;;;;;;13.77;10.75;;;;;;;;;;4929526;29;20435;-75
2023/03/09 14:08:44;;;;;;;15.23;11.10;;;;;;;;;;4914088;29;21791;-77
2023/03/09 14:11:15;;;;;;;14.93;10.80;;;;;;;;;;4929525;29;20824;-76
2023/03/09 14:13:46;;;;;;;15.40;10.57;;;;;;;;;;4931875;29;20427;-75
2023/03/09 14:16:15;;;;;;;16.50;11.80;;;;;;;;;;4930829;29;20526;-76
2023/03/09 14:18:51;;;;;;;15.52;11.38;;;;;;;;;;4929138;29;22320;-76
2023/03/09 14:21:23;;;;;;;16.00;11.88;;;;;;;;;;4930085;29;20446;-76
2023/03/09 14:23:49;;;;;;;16.33;11.82;;;;;;;;;;4929856;29;20852;-77
2023/03/09 14:26:26;;;;;;;16.73;12.70;;;;;;;;;;4928053;29;20792;-77